createdAt,value
2023-06-26T00:00:43.919Z,25.00
2023-06-26T00:01:44.030Z,25.00
2023-06-26T00:02:43.801Z,25.00
2023-06-26T00:03:43.893Z,0.00
2023-06-26T00:04:43.846Z,0.00
2023-06-26T00:05:43.890Z,0.00
2023-06-26T00:06:43.963Z,0.00
2023-06-26T00:07:44.915Z,0.00
2023-06-26T00:08:44.011Z,0.00
2023-06-26T00:09:44.014Z,6.83
2023-06-26T00:10:44.052Z,23.81
2023-06-26T00:11:44.093Z,25.00
2023-06-26T00:12:44.131Z,25.89
2023-06-26T00:13:44.252Z,25.00
2023-06-26T00:14:44.203Z,25.00
2023-06-26T00:15:44.239Z,25.00
2023-06-26T00:16:44.275Z,25.00
2023-06-26T00:17:44.414Z,25.39
2023-06-26T00:18:44.343Z,26.40
2023-06-26T00:19:44.393Z,25.16
2023-06-26T00:20:44.437Z,25.00
2023-06-26T00:21:44.470Z,25.31
2023-06-26T00:22:44.567Z,25.00
2023-06-26T00:23:44.592Z,25.54
2023-06-26T00:24:44.597Z,25.00
2023-06-26T00:25:44.631Z,25.98
2023-06-26T00:26:44.673Z,26.47
2023-06-26T00:27:44.714Z,27.45
2023-06-26T00:28:44.760Z,26.94
2023-06-26T00:29:44.837Z,26.09
2023-06-26T00:30:44.857Z,25.65
2023-06-26T00:31:44.944Z,29.66
2023-06-26T00:32:45.000Z,30.31
2023-06-26T00:33:44.991Z,25.00
2023-06-26T00:34:45.026Z,25.00
2023-06-26T00:35:45.091Z,25.99
2023-06-26T00:36:45.122Z,26.30
2023-06-26T00:37:45.148Z,26.10
2023-06-26T00:38:45.192Z,25.66
2023-06-26T00:39:45.230Z,26.11
2023-06-26T00:40:45.294Z,27.74
2023-06-26T00:41:45.314Z,25.75
2023-06-26T00:42:45.378Z,27.47
2023-06-26T00:43:45.398Z,26.46
2023-06-26T00:44:45.444Z,28.62
2023-06-26T00:45:45.560Z,25.40
2023-06-26T00:46:45.575Z,25.71
2023-06-26T00:47:45.652Z,25.00
2023-06-26T00:48:46.694Z,25.00
2023-06-26T00:49:45.744Z,30.35
2023-06-26T00:50:45.749Z,27.55
2023-06-26T00:51:45.799Z,26.53
2023-06-26T00:52:45.835Z,25.18
2023-06-26T00:53:48.440Z,25.00
2023-06-26T00:54:45.898Z,30.81
2023-06-26T00:55:46.439Z,31.47
2023-06-26T00:56:45.834Z,29.33
2023-06-26T00:57:45.865Z,26.39
2023-06-26T00:58:45.834Z,26.39
2023-06-26T00:59:45.831Z,27.50
2023-06-26T01:00:45.833Z,25.00
2023-06-26T01:01:45.902Z,27.24
2023-06-26T01:02:45.939Z,30.14
2023-06-26T01:03:45.854Z,25.80
2023-06-26T01:04:46.446Z,31.25
2023-06-26T01:05:45.842Z,25.00
2023-06-26T01:06:45.983Z,28.99
2023-06-26T01:07:45.846Z,28.09
2023-06-26T01:08:45.863Z,29.23
2023-06-26T01:09:45.866Z,29.01
2023-06-26T01:10:45.878Z,26.29
2023-06-26T01:11:45.868Z,25.00
2023-06-26T01:12:45.874Z,28.86
2023-06-26T01:13:45.905Z,30.01
2023-06-26T01:14:45.943Z,28.88
2023-06-26T01:15:45.998Z,25.00
2023-06-26T01:16:46.052Z,28.21
2023-06-26T01:17:46.291Z,26.16
2023-06-26T01:18:46.456Z,25.00
2023-06-26T01:19:46.305Z,27.14
2023-06-26T01:20:46.470Z,25.00
2023-06-26T01:21:46.952Z,27.50
2023-06-26T01:22:46.382Z,26.71
2023-06-26T01:23:46.442Z,27.32
2023-06-26T01:24:46.500Z,30.15
2023-06-26T01:25:46.548Z,27.94
2023-06-26T01:26:46.602Z,29.63
2023-06-26T01:27:46.665Z,30.18
2023-06-26T01:28:46.726Z,30.06
2023-06-26T01:29:46.771Z,28.30
2023-06-26T01:30:46.844Z,29.05
2023-06-26T01:31:46.957Z,28.86
2023-06-26T01:32:47.053Z,29.40
2023-06-26T01:33:48.008Z,27.65
2023-06-26T01:34:47.073Z,29.52
2023-06-26T01:35:47.129Z,25.54
2023-06-26T01:36:47.180Z,31.98
2023-06-26T01:37:47.240Z,29.89
2023-06-26T01:38:47.298Z,25.84
2023-06-26T01:39:47.367Z,30.59
2023-06-26T01:40:47.417Z,34.07
2023-06-26T01:41:47.477Z,32.59
2023-06-26T01:42:47.537Z,31.76
2023-06-26T01:43:47.581Z,31.50
2023-06-26T01:44:47.639Z,27.25
2023-06-26T01:45:47.772Z,31.86
2023-06-26T01:46:47.752Z,27.61
2023-06-26T01:47:47.885Z,29.64
2023-06-26T01:48:47.877Z,27.38
2023-06-26T01:49:47.943Z,28.31
2023-06-26T01:50:47.968Z,27.92
2023-06-26T01:51:48.023Z,28.51
2023-06-26T01:52:48.092Z,27.32
2023-06-26T01:53:48.147Z,27.75
2023-06-26T01:54:48.192Z,33.12
2023-06-26T01:55:48.269Z,27.33
2023-06-26T01:56:48.298Z,27.79
2023-06-26T01:57:48.348Z,29.69
2023-06-26T01:58:48.514Z,26.90
2023-06-26T01:59:48.443Z,26.58
2023-06-26T02:00:48.548Z,27.19
2023-06-26T02:01:48.590Z,28.39
2023-06-26T02:02:48.673Z,27.69
2023-06-26T02:03:48.686Z,27.28
2023-06-26T02:04:48.692Z,26.48
2023-06-26T02:05:48.790Z,25.00
2023-06-26T02:06:48.885Z,29.97
2023-06-26T02:07:48.850Z,27.31
2023-06-26T02:08:48.904Z,29.07
2023-06-26T02:09:48.960Z,28.27
2023-06-26T02:10:49.006Z,25.10
2023-06-26T02:11:49.087Z,28.13
2023-06-26T02:12:49.108Z,27.44
2023-06-26T02:13:49.175Z,25.83
2023-06-26T02:14:49.223Z,28.21
2023-06-26T02:15:49.277Z,26.01
2023-06-26T02:16:49.332Z,25.64
2023-06-26T02:17:49.551Z,30.83
2023-06-26T02:18:49.463Z,29.61
2023-06-26T02:19:49.492Z,27.49
2023-06-26T02:20:49.552Z,29.32
2023-06-26T02:21:50.524Z,27.43
2023-06-26T02:22:49.653Z,28.16
2023-06-26T02:23:49.758Z,30.58
2023-06-26T02:24:49.772Z,27.59
2023-06-26T02:25:49.974Z,29.08
2023-06-26T02:26:49.875Z,28.15
2023-06-26T02:27:49.921Z,31.90
2023-06-26T02:28:49.972Z,27.15
2023-06-26T02:29:50.052Z,26.84
2023-06-26T02:30:50.516Z,25.91
2023-06-26T02:31:50.146Z,30.77
2023-06-26T02:32:50.292Z,32.21
2023-06-26T02:33:50.261Z,28.78
2023-06-26T02:34:50.316Z,26.56
2023-06-26T02:35:50.387Z,26.80
2023-06-26T02:36:50.438Z,25.49
2023-06-26T02:37:50.524Z,26.48
2023-06-26T02:38:50.556Z,26.95
2023-06-26T02:39:50.618Z,30.98
2023-06-26T02:40:50.708Z,25.44
2023-06-26T02:41:50.725Z,27.54
2023-06-26T02:42:50.786Z,30.93
2023-06-26T02:43:51.484Z,28.43
2023-06-26T02:44:50.893Z,27.10
2023-06-26T02:45:50.957Z,27.83
2023-06-26T02:46:51.062Z,30.15
2023-06-26T02:47:52.012Z,25.00
2023-06-26T02:48:51.105Z,27.57
2023-06-26T02:49:51.168Z,28.09
2023-06-26T02:50:51.221Z,28.28
2023-06-26T02:51:51.285Z,29.34
2023-06-26T02:52:51.335Z,28.20
2023-06-26T02:53:51.432Z,27.26
2023-06-26T02:54:51.472Z,28.69
2023-06-26T02:55:51.535Z,28.23
2023-06-26T02:56:51.586Z,29.16
2023-06-26T02:57:51.652Z,28.68
2023-06-26T02:58:51.719Z,26.21
2023-06-26T02:59:51.788Z,26.04
2023-06-26T03:00:51.904Z,27.61
2023-06-26T03:01:52.489Z,25.00
2023-06-26T03:02:51.981Z,26.73
2023-06-26T03:03:52.115Z,29.38
2023-06-26T03:04:52.097Z,27.49
2023-06-26T03:05:52.155Z,26.09
2023-06-26T03:06:52.235Z,27.71
2023-06-26T03:07:52.289Z,29.63
2023-06-26T03:08:52.350Z,28.91
2023-06-26T03:09:52.442Z,27.98
2023-06-26T03:10:52.473Z,27.73
2023-06-26T03:11:52.538Z,27.06
2023-06-26T03:12:52.601Z,28.29
2023-06-26T03:13:52.679Z,28.58
2023-06-26T03:14:52.762Z,31.86
2023-06-26T03:15:52.820Z,27.93
2023-06-26T03:16:52.971Z,27.31
2023-06-26T03:17:52.994Z,28.78
2023-06-26T03:18:53.993Z,27.78
2023-06-26T03:19:53.059Z,28.20
2023-06-26T03:20:53.999Z,30.01
2023-06-26T03:21:53.189Z,25.00
2023-06-26T03:22:53.247Z,29.38
2023-06-26T03:23:53.320Z,27.06
2023-06-26T03:24:53.385Z,26.37
2023-06-26T03:25:53.479Z,26.82
2023-06-26T03:26:53.512Z,26.15
2023-06-26T03:27:53.586Z,30.05
2023-06-26T03:28:53.645Z,28.84
2023-06-26T03:29:53.724Z,31.95
2023-06-26T03:30:53.790Z,29.55
2023-06-26T03:31:53.849Z,28.27
2023-06-26T03:32:54.563Z,28.89
2023-06-26T03:33:53.996Z,26.81
2023-06-26T03:34:54.073Z,27.97
2023-06-26T03:35:54.125Z,30.07
2023-06-26T03:36:54.186Z,29.35
2023-06-26T03:37:54.266Z,26.24
2023-06-26T03:38:54.335Z,26.51
2023-06-26T03:39:54.397Z,29.16
2023-06-26T03:40:54.469Z,26.45
2023-06-26T03:41:55.530Z,28.31
2023-06-26T03:42:54.600Z,26.08
2023-06-26T03:43:54.672Z,29.54
2023-06-26T03:44:54.748Z,29.12
2023-06-26T03:45:54.881Z,28.32
2023-06-26T03:46:54.868Z,27.70
2023-06-26T03:47:54.938Z,30.70
2023-06-26T03:48:55.006Z,31.06
2023-06-26T03:49:55.065Z,27.55
2023-06-26T03:50:55.135Z,30.98
2023-06-26T03:51:55.195Z,28.76
2023-06-26T03:52:55.284Z,29.62
2023-06-26T03:53:55.341Z,26.42
2023-06-26T03:54:55.415Z,28.67
2023-06-26T03:55:55.479Z,33.08
2023-06-26T03:56:55.540Z,29.26
2023-06-26T03:57:55.629Z,29.44
2023-06-26T03:58:55.667Z,30.00
2023-06-26T03:59:55.737Z,27.44
2023-06-26T04:00:55.800Z,27.75
2023-06-26T04:01:55.889Z,25.82
2023-06-26T04:02:55.948Z,27.23
2023-06-26T04:03:56.518Z,29.88
2023-06-26T04:04:56.150Z,30.43
2023-06-26T04:05:56.146Z,28.63
2023-06-26T04:06:56.246Z,27.56
2023-06-26T04:07:56.270Z,28.27
2023-06-26T04:08:56.336Z,27.14
2023-06-26T04:09:56.408Z,27.53
2023-06-26T04:10:56.490Z,25.98
2023-06-26T04:11:56.542Z,25.34
2023-06-26T04:12:56.598Z,28.72
2023-06-26T04:13:56.688Z,26.53
2023-06-26T04:14:56.727Z,27.96
2023-06-26T04:15:56.801Z,28.57
2023-06-26T04:16:56.864Z,26.12
2023-06-26T04:17:56.993Z,27.68
2023-06-26T04:18:57.079Z,29.71
2023-06-26T04:19:57.069Z,29.43
2023-06-26T04:20:57.138Z,29.75
2023-06-26T04:21:57.189Z,26.74
2023-06-26T04:22:57.257Z,30.67
2023-06-26T04:23:57.330Z,30.61
2023-06-26T04:24:57.407Z,29.21
2023-06-26T04:25:57.457Z,26.51
2023-06-26T04:26:57.527Z,31.01
2023-06-26T04:27:57.592Z,30.64
2023-06-26T04:28:57.663Z,31.18
2023-06-26T04:29:57.764Z,26.35
2023-06-26T04:30:57.811Z,28.77
2023-06-26T04:31:57.968Z,29.47
2023-06-26T04:32:57.953Z,26.77
2023-06-26T04:33:58.014Z,28.51
2023-06-26T04:34:58.076Z,28.28
2023-06-26T04:35:58.200Z,28.41
2023-06-26T04:36:58.186Z,29.46
2023-06-26T04:37:58.257Z,30.53
2023-06-26T04:38:58.324Z,28.25
2023-06-26T04:39:58.387Z,28.98
2023-06-26T04:40:58.455Z,30.32
2023-06-26T04:41:58.520Z,31.93
2023-06-26T04:42:58.586Z,25.75
2023-06-26T04:43:58.688Z,26.64
2023-06-26T04:44:58.724Z,25.41
2023-06-26T04:45:58.875Z,25.00
2023-06-26T04:46:58.862Z,26.37
2023-06-26T04:47:59.586Z,31.43
2023-06-26T04:48:59.006Z,27.31
2023-06-26T04:50:00.041Z,25.89
2023-06-26T04:50:59.559Z,29.00
2023-06-26T04:52:00.067Z,26.88
2023-06-26T04:52:59.257Z,28.76
2023-06-26T04:53:59.317Z,30.80
2023-06-26T04:54:59.391Z,29.36
2023-06-26T04:55:59.474Z,29.18
2023-06-26T04:56:59.527Z,26.02
2023-06-26T04:57:59.600Z,25.00
2023-06-26T04:58:59.678Z,27.46
2023-06-26T04:59:59.739Z,30.48
2023-06-26T05:00:59.882Z,29.46
2023-06-26T05:01:59.982Z,24.83
2023-06-26T05:03:00.038Z,28.63
2023-06-26T05:04:00.020Z,25.93
2023-06-26T05:05:00.070Z,27.26
2023-06-26T05:06:02.335Z,24.53
2023-06-26T05:07:01.187Z,24.95
2023-06-26T05:08:00.168Z,26.44
2023-06-26T05:09:00.273Z,27.77
2023-06-26T05:10:00.271Z,30.03
2023-06-26T05:11:00.313Z,31.43
2023-06-26T05:12:00.373Z,28.30
2023-06-26T05:13:00.427Z,30.20
2023-06-26T05:14:00.496Z,28.50
2023-06-26T05:15:00.559Z,29.67
2023-06-26T05:16:00.615Z,29.77
2023-06-26T05:17:00.661Z,29.76
2023-06-26T05:18:59.775Z,28.74
2023-06-26T05:20:00.829Z,27.75
2023-06-26T05:21:01.100Z,26.31
2023-06-26T05:22:00.949Z,25.45
2023-06-26T05:23:01.008Z,27.38
2023-06-26T05:24:01.064Z,25.00
2023-06-26T05:25:01.133Z,22.06
2023-06-26T05:26:01.194Z,23.91
2023-06-26T05:27:01.278Z,25.72
2023-06-26T05:28:01.352Z,25.66
2023-06-26T05:29:01.392Z,25.00
2023-06-26T05:30:01.433Z,24.77
2023-06-26T05:31:01.496Z,25.57
2023-06-26T05:32:01.532Z,25.44
2023-06-26T05:33:01.596Z,25.00
2023-06-26T05:34:01.610Z,27.69
2023-06-26T05:35:01.630Z,28.96
2023-06-26T05:36:01.635Z,25.00
2023-06-26T05:37:01.669Z,26.55
2023-06-26T05:38:01.734Z,25.06
2023-06-26T05:39:01.763Z,25.00
2023-06-26T05:40:04.566Z,26.15
2023-06-26T05:41:02.062Z,25.00
2023-06-26T05:42:01.856Z,28.01
2023-06-26T05:43:01.852Z,32.06
2023-06-26T05:44:01.940Z,28.94
2023-06-26T05:45:01.889Z,26.12
2023-06-26T05:46:02.071Z,31.49
2023-06-26T05:47:01.950Z,32.00
2023-06-26T05:48:02.026Z,33.60
2023-06-26T05:49:02.061Z,31.35
2023-06-26T05:50:02.022Z,24.31
2023-06-26T05:51:02.308Z,26.40
2023-06-26T05:52:02.409Z,28.26
2023-06-26T05:53:02.078Z,30.55
2023-06-26T05:54:02.077Z,31.34
2023-06-26T05:55:02.102Z,30.86
2023-06-26T05:56:02.626Z,37.60
2023-06-26T05:57:02.180Z,49.94
2023-06-26T05:58:02.202Z,55.76
2023-06-26T05:59:02.201Z,55.60
2023-06-26T06:00:02.246Z,56.54
2023-06-26T06:01:02.589Z,61.52
2023-06-26T06:02:02.382Z,66.05
2023-06-26T06:03:03.364Z,71.77
2023-06-26T06:04:02.388Z,74.80
2023-06-26T06:05:05.600Z,82.75
2023-06-26T06:06:03.082Z,83.14
2023-06-26T06:07:02.445Z,86.10
2023-06-26T06:08:05.647Z,91.80
2023-06-26T06:09:03.440Z,84.01
2023-06-26T06:10:02.642Z,87.97
2023-06-26T06:11:02.611Z,95.57
2023-06-26T06:12:02.488Z,103.37
2023-06-26T06:13:02.596Z,117.27
2023-06-26T06:14:02.524Z,136.43
2023-06-26T06:15:03.461Z,131.72
2023-06-26T06:16:02.536Z,129.16
2023-06-26T06:17:02.579Z,129.28
2023-06-26T06:18:02.638Z,126.88
2023-06-26T06:19:02.585Z,133.93
2023-06-26T06:20:02.619Z,140.00
2023-06-26T06:21:02.636Z,141.00
2023-06-26T06:22:02.626Z,146.77
2023-06-26T06:23:02.618Z,161.54
2023-06-26T06:24:03.083Z,157.70
2023-06-26T06:25:02.649Z,158.22
2023-06-26T06:26:02.656Z,157.14
2023-06-26T06:27:02.812Z,166.85
2023-06-26T06:28:03.433Z,179.39
2023-06-26T06:29:03.200Z,171.24
2023-06-26T06:30:02.924Z,165.68
2023-06-26T06:31:03.015Z,170.86
2023-06-26T06:32:03.085Z,172.19
2023-06-26T06:33:03.196Z,173.56
2023-06-26T06:34:03.618Z,173.96
2023-06-26T06:35:03.311Z,182.35
2023-06-26T06:36:03.585Z,187.88
2023-06-26T06:37:03.444Z,193.04
2023-06-26T06:38:03.495Z,194.45
2023-06-26T06:39:03.569Z,187.16
2023-06-26T06:40:04.118Z,184.64
2023-06-26T06:41:03.725Z,185.62
2023-06-26T06:42:03.763Z,188.52
2023-06-26T06:43:03.810Z,197.23
2023-06-26T06:44:03.863Z,210.88
2023-06-26T06:45:04.105Z,228.49
2023-06-26T06:46:03.968Z,202.78
2023-06-26T06:47:04.025Z,160.38
2023-06-26T06:48:04.157Z,147.90
2023-06-26T06:49:04.589Z,136.03
2023-06-26T06:50:04.219Z,122.41
2023-06-26T06:51:04.297Z,119.07
2023-06-26T06:52:04.795Z,110.38
2023-06-26T06:53:04.458Z,108.28
2023-06-26T06:54:04.462Z,104.19
2023-06-26T06:55:04.525Z,99.11
2023-06-26T06:56:05.101Z,100.18
2023-06-26T06:57:05.088Z,99.73
2023-06-26T06:58:06.127Z,98.65
2023-06-26T06:59:04.937Z,101.62
2023-06-26T07:00:05.012Z,96.13
2023-06-26T07:01:05.083Z,104.92
2023-06-26T07:02:05.675Z,109.66
2023-06-26T07:03:05.363Z,117.58
2023-06-26T07:04:05.344Z,124.63
2023-06-26T07:05:05.309Z,129.21
2023-06-26T07:06:05.600Z,144.14
2023-06-26T07:07:05.522Z,155.05
2023-06-26T07:08:06.472Z,157.96
2023-06-26T07:09:05.487Z,167.48
2023-06-26T07:10:05.528Z,167.65
2023-06-26T07:11:06.095Z,166.19
2023-06-26T07:12:05.570Z,171.48
2023-06-26T07:13:05.594Z,170.11
2023-06-26T07:14:05.633Z,178.05
2023-06-26T07:15:06.124Z,194.24
2023-06-26T07:16:06.122Z,200.24
2023-06-26T07:17:05.684Z,202.37
2023-06-26T07:18:05.742Z,197.11
2023-06-26T07:19:05.710Z,204.51
2023-06-26T07:20:07.104Z,206.90
2023-06-26T07:21:06.099Z,199.82
2023-06-26T07:22:05.757Z,205.89
2023-06-26T07:23:05.748Z,223.17
2023-06-26T07:24:05.760Z,220.71
2023-06-26T07:25:05.755Z,226.88
2023-06-26T07:26:06.125Z,238.23
2023-06-26T07:27:05.745Z,244.07
2023-06-26T07:28:05.719Z,241.32
2023-06-26T07:29:05.752Z,242.68
2023-06-26T07:30:05.722Z,248.16
2023-06-26T07:31:06.125Z,250.00
2023-06-26T07:32:05.717Z,250.00
2023-06-26T07:33:05.700Z,249.88
2023-06-26T07:34:05.727Z,249.34
2023-06-26T07:35:05.682Z,242.62
2023-06-26T07:36:06.107Z,244.12
2023-06-26T07:37:05.670Z,244.50
2023-06-26T07:38:05.641Z,246.37
2023-06-26T07:39:05.634Z,250.00
2023-06-26T07:40:05.679Z,250.00
2023-06-26T07:41:06.104Z,250.00
2023-06-26T07:42:05.591Z,248.92
2023-06-26T07:43:05.608Z,250.00
2023-06-26T07:44:05.593Z,244.23
2023-06-26T07:45:05.638Z,247.09
2023-06-26T07:46:06.113Z,245.96
2023-06-26T07:47:05.738Z,228.04
2023-06-26T07:48:15.648Z,224.02
2023-06-26T07:49:05.722Z,224.54
2023-06-26T07:50:05.728Z,222.56
2023-06-26T07:51:06.147Z,210.44
2023-06-26T07:52:05.704Z,193.39
2023-06-26T07:53:05.686Z,190.57
2023-06-26T07:54:05.682Z,181.19
2023-06-26T07:55:05.685Z,159.32
2023-06-26T07:56:05.717Z,138.43
2023-06-26T07:57:12.777Z,127.40
2023-06-26T07:58:05.647Z,127.41
2023-06-26T07:59:05.649Z,119.95
2023-06-26T08:02:56.390Z,25.00
2023-06-26T08:04:06.330Z,25.00
2023-06-26T08:04:57.452Z,25.00
2023-06-26T08:08:34.471Z,25.00
2023-06-26T08:09:35.470Z,25.00
2023-06-26T08:10:35.537Z,25.00
2023-06-26T08:11:35.668Z,25.00
2023-06-26T08:12:35.449Z,25.00
2023-06-26T08:13:35.402Z,25.11
2023-06-26T08:14:35.360Z,25.00
2023-06-26T08:15:35.361Z,27.00
2023-06-26T08:16:35.630Z,32.23
2023-06-26T08:17:35.338Z,26.29
2023-06-26T08:18:35.266Z,26.55
2023-06-26T08:19:35.247Z,31.56
2023-06-26T08:20:35.298Z,27.59
2023-06-26T08:21:35.628Z,25.00
2023-06-26T08:22:35.175Z,28.96
2023-06-26T08:23:35.142Z,38.62
2023-06-26T08:24:35.120Z,43.46
2023-06-26T08:25:35.094Z,54.79
2023-06-26T08:26:35.125Z,51.11
2023-06-26T08:27:35.128Z,61.43
2023-06-26T08:28:35.129Z,55.27
2023-06-26T08:29:35.820Z,52.63
2023-06-26T08:30:35.191Z,58.24
2023-06-26T08:31:35.144Z,52.90
2023-06-26T08:32:34.997Z,53.02
2023-06-26T08:33:35.128Z,68.85
2023-06-26T08:34:34.937Z,58.73
2023-06-26T08:35:34.919Z,58.33
2023-06-26T08:36:35.132Z,58.57
2023-06-26T08:37:34.913Z,40.28
2023-06-26T08:38:34.872Z,44.47
2023-06-26T08:39:34.854Z,38.60
2023-06-26T08:40:34.819Z,43.14
2023-06-26T08:41:35.136Z,54.65
2023-06-26T08:42:34.805Z,55.14
2023-06-26T08:43:34.832Z,25.25
2023-06-26T08:44:35.525Z,25.00
2023-06-26T08:45:35.791Z,25.00
2023-06-26T08:46:35.202Z,26.45
2023-06-26T08:47:34.784Z,28.07
2023-06-26T08:48:34.691Z,26.60
2023-06-26T08:49:34.665Z,30.09
2023-06-26T08:50:34.645Z,33.75
2023-06-26T08:51:34.636Z,37.29
2023-06-26T08:52:34.617Z,25.00
2023-06-26T08:53:34.605Z,27.20
2023-06-26T08:54:34.588Z,31.58
2023-06-26T08:55:34.591Z,45.05
2023-06-26T08:56:34.650Z,53.48
2023-06-26T08:57:34.590Z,66.44
2023-06-26T08:58:35.563Z,74.61
2023-06-26T08:59:34.698Z,77.87
2023-06-26T09:00:34.634Z,78.13
2023-06-26T09:01:34.731Z,82.91
2023-06-26T09:02:34.718Z,84.30
2023-06-26T09:03:34.734Z,84.00
2023-06-26T09:04:34.733Z,82.80
2023-06-26T09:05:34.776Z,85.33
2023-06-26T09:06:35.163Z,85.66
2023-06-26T09:07:34.963Z,84.33
2023-06-26T09:08:35.149Z,91.11
2023-06-26T09:09:34.939Z,91.51
2023-06-26T09:10:34.977Z,89.59
2023-06-26T09:11:35.028Z,89.91
2023-06-26T09:12:35.081Z,90.03
2023-06-26T09:13:35.153Z,90.93
2023-06-26T09:14:35.137Z,94.00
2023-06-26T09:15:35.368Z,94.26
2023-06-26T09:16:35.288Z,97.10
2023-06-26T09:17:35.287Z,98.01
2023-06-26T09:18:35.659Z,99.64
2023-06-26T09:19:37.263Z,102.91
2023-06-26T09:20:35.326Z,110.42
2023-06-26T09:21:35.289Z,113.90
2023-06-26T09:22:35.290Z,113.55
2023-06-26T09:23:35.326Z,118.35
2023-06-26T09:24:35.800Z,118.51
2023-06-26T09:25:35.184Z,122.90
2023-06-26T09:26:35.175Z,127.23
2023-06-26T09:27:35.137Z,132.69
2023-06-26T09:28:35.170Z,139.04
2023-06-26T09:29:35.089Z,136.51
2023-06-26T09:30:35.101Z,123.55
2023-06-26T09:31:40.552Z,76.58
2023-06-26T09:32:35.159Z,65.88
2023-06-26T09:33:35.169Z,63.80
2023-06-26T09:34:34.964Z,59.92
2023-06-26T09:35:34.942Z,46.01
2023-06-26T09:36:37.277Z,26.83
2023-06-26T09:37:35.175Z,29.32
2023-06-26T09:38:38.330Z,27.92
2023-06-26T09:39:35.107Z,33.89
2023-06-26T09:40:37.039Z,7.81
2023-06-26T09:41:35.048Z,7.85
2023-06-26T09:42:35.238Z,1.75
2023-06-26T09:43:36.828Z,1.48
2023-06-26T09:44:34.988Z,17.27
2023-06-26T09:45:35.084Z,38.69
2023-06-26T09:46:35.261Z,45.26
2023-06-26T09:47:35.250Z,50.06
2023-06-26T09:48:34.903Z,59.01
2023-06-26T09:49:35.173Z,67.98
2023-06-26T09:50:34.861Z,69.46
2023-06-26T09:51:34.835Z,76.11
2023-06-26T09:52:34.789Z,81.44
2023-06-26T09:53:34.741Z,86.75
2023-06-26T09:54:34.705Z,96.78
2023-06-26T09:55:34.680Z,103.66
2023-06-26T09:56:34.753Z,108.86
2023-06-26T09:57:34.621Z,111.70
2023-06-26T09:58:34.596Z,120.04
2023-06-26T09:59:34.668Z,122.34
2023-06-26T10:00:34.544Z,130.27
2023-06-26T10:01:34.684Z,138.62
2023-06-26T10:02:34.623Z,139.76
2023-06-26T10:03:34.697Z,149.81
2023-06-26T10:04:34.855Z,152.22
2023-06-26T10:05:34.368Z,160.07
2023-06-26T10:06:35.022Z,136.13
2023-06-26T10:07:34.379Z,132.38
2023-06-26T10:08:34.265Z,134.34
2023-06-26T10:09:34.230Z,138.41
2023-06-26T10:10:34.221Z,139.80
2023-06-26T10:11:34.161Z,147.91
2023-06-26T10:12:34.176Z,148.41
2023-06-26T10:13:34.152Z,160.12
2023-06-26T10:14:34.071Z,159.52
2023-06-26T10:15:34.056Z,161.63
2023-06-26T10:16:34.087Z,168.04
2023-06-26T10:17:34.200Z,169.94
2023-06-26T10:18:34.048Z,175.40
2023-06-26T10:19:37.286Z,174.43
2023-06-26T10:20:34.039Z,174.58
2023-06-26T10:21:34.007Z,175.53
2023-06-26T10:22:41.573Z,174.49
2023-06-26T10:23:33.945Z,175.04
2023-06-26T10:24:34.188Z,176.62
2023-06-26T10:25:33.930Z,180.22
2023-06-26T10:26:33.854Z,181.36
2023-06-26T10:27:33.827Z,189.16
2023-06-26T10:28:33.804Z,191.61
2023-06-26T10:29:34.201Z,188.80
2023-06-26T10:30:33.738Z,185.12
2023-06-26T10:31:34.312Z,169.95
2023-06-26T10:32:33.714Z,173.74
2023-06-26T10:33:33.672Z,171.57
2023-06-26T10:34:33.626Z,161.62
2023-06-26T10:35:33.713Z,152.16
2023-06-26T10:36:33.786Z,123.85
2023-06-26T10:37:33.555Z,134.10
2023-06-26T10:38:33.524Z,116.05
2023-06-26T10:39:33.529Z,134.57
2023-06-26T10:40:34.149Z,122.57
2023-06-26T10:41:33.448Z,134.83
2023-06-26T10:42:33.416Z,134.17
2023-06-26T10:43:33.686Z,133.00
2023-06-26T10:44:33.364Z,128.51
2023-06-26T10:45:33.368Z,139.22
2023-06-26T10:46:33.689Z,132.33
2023-06-26T10:47:33.585Z,121.87
2023-06-26T10:48:33.498Z,126.76
2023-06-26T10:49:33.513Z,130.97
2023-06-26T10:50:33.564Z,128.10
2023-06-26T10:51:33.730Z,128.40
2023-06-26T10:52:33.645Z,121.04
2023-06-26T10:53:33.668Z,118.85
2023-06-26T10:54:33.717Z,114.93
2023-06-26T10:55:33.764Z,101.51
2023-06-26T10:56:34.188Z,104.24
2023-06-26T10:57:33.849Z,109.33
2023-06-26T10:58:33.891Z,103.27
2023-06-26T10:59:33.940Z,100.93
2023-06-26T11:00:34.104Z,101.71
2023-06-26T11:01:34.176Z,107.07
2023-06-26T11:02:34.094Z,101.46
2023-06-26T11:03:34.108Z,78.89
2023-06-26T11:04:34.182Z,101.44
2023-06-26T11:05:34.173Z,106.73
2023-06-26T11:06:34.726Z,105.84
2023-06-26T11:07:34.324Z,113.36
2023-06-26T11:08:34.461Z,112.10
2023-06-26T11:09:34.401Z,105.29
2023-06-26T11:10:34.498Z,108.29
2023-06-26T11:11:34.945Z,109.02
2023-06-26T11:12:34.511Z,99.28
2023-06-26T11:13:34.806Z,114.80
2023-06-26T11:14:34.912Z,107.33
2023-06-26T11:15:34.620Z,110.75
2023-06-26T11:16:34.892Z,106.80
2023-06-26T11:17:35.146Z,97.17
2023-06-26T11:18:34.700Z,96.38
2023-06-26T11:19:35.290Z,102.32
2023-06-26T11:20:34.791Z,85.05
2023-06-26T11:21:35.230Z,51.80
2023-06-26T11:22:35.061Z,25.79
2023-06-26T11:23:34.959Z,25.00
2023-06-26T11:24:35.141Z,28.64
2023-06-26T11:25:36.209Z,37.05
2023-06-26T11:26:35.254Z,34.53
2023-06-26T11:27:34.994Z,37.96
2023-06-26T11:28:35.030Z,25.26
2023-06-26T11:29:35.277Z,29.55
2023-06-26T11:30:35.417Z,44.83
2023-06-26T11:31:35.242Z,54.73
2023-06-26T11:32:35.171Z,49.48
2023-06-26T11:33:35.212Z,55.51
2023-06-26T11:34:35.167Z,43.38
2023-06-26T11:35:35.192Z,58.68
2023-06-26T11:36:35.415Z,71.45
2023-06-26T11:37:35.273Z,89.04
2023-06-26T11:38:35.240Z,91.52
2023-06-26T11:39:35.302Z,84.89
2023-06-26T11:40:35.269Z,87.86
2023-06-26T11:41:35.732Z,95.40
2023-06-26T11:42:35.303Z,101.80
2023-06-26T11:43:35.777Z,104.38
2023-06-26T11:44:35.315Z,95.94
2023-06-26T11:45:35.333Z,91.73
2023-06-26T11:46:35.339Z,102.56
2023-06-26T11:47:35.569Z,100.01
2023-06-26T11:48:35.419Z,70.43
2023-06-26T11:49:35.356Z,62.91
2023-06-26T11:50:35.349Z,62.55
2023-06-26T11:51:35.377Z,49.52
2023-06-26T11:52:35.385Z,37.32
2023-06-26T11:53:35.431Z,49.45
2023-06-26T11:54:35.356Z,36.15
2023-06-26T11:55:35.370Z,41.67
2023-06-26T11:56:35.342Z,29.65
2023-06-26T11:57:35.730Z,31.01
2023-06-26T11:58:35.322Z,22.83
2023-06-26T11:59:35.322Z,37.23
2023-06-26T12:00:35.298Z,25.00
2023-06-26T12:01:35.333Z,25.00
2023-06-26T12:02:35.753Z,39.32
2023-06-26T12:03:35.328Z,44.01
2023-06-26T12:04:35.373Z,51.95
2023-06-26T12:05:35.154Z,37.98
2023-06-26T12:06:35.254Z,44.88
2023-06-26T12:07:35.300Z,45.72
2023-06-26T12:08:35.080Z,54.46
2023-06-26T12:09:35.046Z,60.24
2023-06-26T12:10:35.019Z,73.10
2023-06-26T12:11:35.317Z,73.41
2023-06-26T12:12:35.227Z,70.56
2023-06-26T12:13:35.232Z,73.25
2023-06-26T12:14:34.901Z,75.40
2023-06-26T12:15:35.869Z,75.36
2023-06-26T12:16:34.825Z,83.84
2023-06-26T12:17:34.829Z,69.43
2023-06-26T12:18:34.754Z,64.58
2023-06-26T12:19:34.736Z,70.04
2023-06-26T12:20:34.684Z,67.93
2023-06-26T12:21:34.746Z,70.56
2023-06-26T12:22:34.916Z,64.61
2023-06-26T12:23:34.815Z,70.86
2023-06-26T12:24:34.561Z,70.07
2023-06-26T12:25:34.778Z,67.94
2023-06-26T12:26:34.520Z,68.54
2023-06-26T12:27:34.509Z,64.70
2023-06-26T12:28:34.470Z,60.98
2023-06-26T12:29:34.472Z,34.15
2023-06-26T12:30:34.447Z,25.00
2023-06-26T12:31:34.790Z,36.31
2023-06-26T12:32:34.462Z,46.93
2023-06-26T12:33:34.442Z,45.11
2023-06-26T12:34:34.415Z,25.00
2023-06-26T12:35:34.614Z,31.79
2023-06-26T12:36:34.810Z,25.80
2023-06-26T12:37:34.458Z,32.33
2023-06-26T12:38:34.368Z,28.50
2023-06-26T12:39:34.359Z,26.14
2023-06-26T12:40:34.498Z,28.73
2023-06-26T12:41:34.748Z,38.20
2023-06-26T12:42:34.332Z,38.16
2023-06-26T12:43:34.671Z,43.98
2023-06-26T12:44:34.356Z,51.80
2023-06-26T12:45:34.270Z,57.96
2023-06-26T12:46:34.326Z,77.86
2023-06-26T12:47:34.593Z,79.59
2023-06-26T12:48:34.326Z,88.24
2023-06-26T12:49:34.249Z,106.61
2023-06-26T12:50:34.233Z,116.13
2023-06-26T12:51:34.359Z,122.50
2023-06-26T12:52:34.748Z,131.23
2023-06-26T12:53:37.426Z,134.26